sensor_id;sensor_type;location;lat;lon;timestamp;temperature;humidity
44166;DHT22;30476;53.468;9.826;2022-11-15T00:01:50;8.10;99.90
44166;DHT22;30476;53.468;9.826;2022-11-15T00:04:16;8.10;99.90
44166;DHT22;30476;53.468;9.826;2022-11-15T00:06:42;8.20;99.90
44166;DHT22;30476;53.468;9.826;2022-11-15T00:09:08;8.10;99.90
44166;DHT22;30476;53.468;9.826;2022-11-15T00:11:34;8.20;99.90
44166;DHT22;30476;53.468;9.826;2022-11-15T00:13:59;8.20;99.90
44166;DHT22;30476;53.468;9.826;2022-11-15T00:16:28;8.20;99.90
44166;DHT22;30476;53.468;9.826;2022-11-15T00:18:53;8.30;99.90
44166;DHT22;30476;53.468;9.826;2022-11-15T00:21:19;8.30;99.90
44166;DHT22;30476;53.468;9.826;2022-11-15T00:23:45;8.30;99.90
44166;DHT22;30476;53.468;9.826;2022-11-15T00:26:13;8.30;99.90
44166;DHT22;30476;53.468;9.826;2022-11-15T00:28:40;8.40;99.90
44166;DHT22;30476;53.468;9.826;2022-11-15T00:31:08;8.40;99.90
44166;DHT22;30476;53.468;9.826;2022-11-15T00:33:34;8.40;99.90
44166;DHT22;30476;53.468;9.826;2022-11-15T00:36:07;8.50;99.90
44166;DHT22;30476;53.468;9.826;2022-11-15T00:38:36;8.50;99.90
44166;DHT22;30476;53.468;9.826;2022-11-15T00:41:03;8.50;99.90
44166;DHT22;30476;53.468;9.826;2022-11-15T00:43:30;8.60;99.90
44166;DHT22;30476;53.468;9.826;2022-11-15T00:45:56;8.60;99.90
44166;DHT22;30476;53.468;9.826;2022-11-15T00:48:22;8.60;99.90
44166;DHT22;30476;53.468;9.826;2022-11-15T00:50:48;8.60;99.90
44166;DHT22;30476;53.468;9.826;2022-11-15T00:53:14;8.70;99.90
44166;DHT22;30476;53.468;9.826;2022-11-15T00:55:40;8.70;99.90
44166;DHT22;30476;53.468;9.826;2022-11-15T00:58:06;8.70;99.90
44166;DHT22;30476;53.468;9.826;2022-11-15T01:00:32;8.70;99.90
44166;DHT22;30476;53.468;9.826;2022-11-15T01:03:00;8.70;99.90
44166;DHT22;30476;53.468;9.826;2022-11-15T01:05:25;8.70;99.90
44166;DHT22;30476;53.468;9.826;2022-11-15T01:07:55;8.70;99.90
44166;DHT22;30476;53.468;9.826;2022-11-15T01:10:22;8.60;99.90
44166;DHT22;30476;53.468;9.826;2022-11-15T01:12:48;8.60;99.90
44166;DHT22;30476;53.468;9.826;2022-11-15T01:15:15;8.60;99.90
44166;DHT22;30476;53.468;9.826;2022-11-15T01:17:41;8.60;99.90
44166;DHT22;30476;53.468;9.826;2022-11-15T01:20:07;8.50;99.90
44166;DHT22;30476;53.468;9.826;2022-11-15T01:22:33;8.50;99.90
44166;DHT22;30476;53.468;9.826;2022-11-15T01:24:59;8.50;99.90
44166;DHT22;30476;53.468;9.826;2022-11-15T01:27:25;8.40;99.90
44166;DHT22;30476;53.468;9.826;2022-11-15T01:29:51;8.40;99.90
44166;DHT22;30476;53.468;9.826;2022-11-15T01:32:17;8.40;99.90
44166;DHT22;30476;53.468;9.826;2022-11-15T01:34:42;8.40;99.90
44166;DHT22;30476;53.468;9.826;2022-11-15T01:37:09;8.30;99.90
44166;DHT22;30476;53.468;9.826;2022-11-15T01:39:35;8.30;99.90
44166;DHT22;30476;53.468;9.826;2022-11-15T01:42:00;8.30;99.90
44166;DHT22;30476;53.468;9.826;2022-11-15T01:47:18;8.30;99.90
44166;DHT22;30476;53.468;9.826;2022-11-15T01:49:52;8.20;99.90
44166;DHT22;30476;53.468;9.826;2022-11-15T01:52:23;8.20;99.90
44166;DHT22;30476;53.468;9.826;2022-11-15T01:54:55;8.30;99.90
44166;DHT22;30476;53.468;9.826;2022-11-15T01:57:22;8.10;99.90
44166;DHT22;30476;53.468;9.826;2022-11-15T01:59:48;8.10;99.90
44166;DHT22;30476;53.468;9.826;2022-11-15T02:02:14;8.10;99.90
44166;DHT22;30476;53.468;9.826;2022-11-15T02:04:42;8.10;99.90
44166;DHT22;30476;53.468;9.826;2022-11-15T02:07:11;8.00;99.90
44166;DHT22;30476;53.468;9.826;2022-11-15T02:09:38;8.00;99.90
44166;DHT22;30476;53.468;9.826;2022-11-15T02:12:06;8.00;99.90
44166;DHT22;30476;53.468;9.826;2022-11-15T02:14:34;8.00;99.90
44166;DHT22;30476;53.468;9.826;2022-11-15T02:33:52;7.70;99.90
44166;DHT22;30476;53.468;9.826;2022-11-15T02:36:36;7.60;99.90
44166;DHT22;30476;53.468;9.826;2022-11-15T02:39:13;7.60;99.90
44166;DHT22;30476;53.468;9.826;2022-11-15T02:41:57;7.60;99.90
44166;DHT22;30476;53.468;9.826;2022-11-15T02:44:43;7.50;99.90
44166;DHT22;30476;53.468;9.826;2022-11-15T02:47:13;7.50;99.90
44166;DHT22;30476;53.468;9.826;2022-11-15T02:49:52;7.40;99.90
44166;DHT22;30476;53.468;9.826;2022-11-15T02:52:21;7.40;99.90
44166;DHT22;30476;53.468;9.826;2022-11-15T02:55:00;7.30;99.90
44166;DHT22;30476;53.468;9.826;2022-11-15T03:02:42;7.20;99.90
44166;DHT22;30476;53.468;9.826;2022-11-15T03:05:41;7.20;99.90
44166;DHT22;30476;53.468;9.826;2022-11-15T03:08:29;7.10;99.90
44166;DHT22;30476;53.468;9.826;2022-11-15T03:11:13;7.10;99.90
44166;DHT22;30476;53.468;9.826;2022-11-15T03:13:58;7.10;99.90
44166;DHT22;30476;53.468;9.826;2022-11-15T03:16:37;7.00;99.90
44166;DHT22;30476;53.468;9.826;2022-11-15T03:21:49;7.00;99.90
44166;DHT22;30476;53.468;9.826;2022-11-15T03:24:17;7.00;99.90
44166;DHT22;30476;53.468;9.826;2022-11-15T03:26:46;6.90;99.90
44166;DHT22;30476;53.468;9.826;2022-11-15T03:29:26;6.90;99.90
44166;DHT22;30476;53.468;9.826;2022-11-15T03:32:21;6.90;99.90
44166;DHT22;30476;53.468;9.826;2022-11-15T03:37:40;6.80;99.90
44166;DHT22;30476;53.468;9.826;2022-11-15T03:40:07;6.80;99.90
44166;DHT22;30476;53.468;9.826;2022-11-15T03:42:51;6.80;99.90
44166;DHT22;30476;53.468;9.826;2022-11-15T03:45:29;6.70;99.90
44166;DHT22;30476;53.468;9.826;2022-11-15T03:48:05;6.70;99.90
44166;DHT22;30476;53.468;9.826;2022-11-15T03:50:33;6.70;99.90
44166;DHT22;30476;53.468;9.826;2022-11-15T03:53:00;6.70;99.90
44166;DHT22;30476;53.468;9.826;2022-11-15T03:55:26;6.70;99.90
44166;DHT22;30476;53.468;9.826;2022-11-15T03:57:55;6.70;99.90
44166;DHT22;30476;53.468;9.826;2022-11-15T04:00:22;6.70;99.90
44166;DHT22;30476;53.468;9.826;2022-11-15T04:02:48;6.70;99.90
44166;DHT22;30476;53.468;9.826;2022-11-15T04:05:14;6.70;99.90
44166;DHT22;30476;53.468;9.826;2022-11-15T04:07:40;6.70;99.90
44166;DHT22;30476;53.468;9.826;2022-11-15T04:10:06;6.80;99.90
44166;DHT22;30476;53.468;9.826;2022-11-15T04:12:35;6.80;99.90
44166;DHT22;30476;53.468;9.826;2022-11-15T04:17:59;6.90;99.90
44166;DHT22;30476;53.468;9.826;2022-11-15T04:20:28;6.90;99.90
44166;DHT22;30476;53.468;9.826;2022-11-15T04:23:16;7.00;99.90
44166;DHT22;30476;53.468;9.826;2022-11-15T04:26:04;7.00;99.90
44166;DHT22;30476;53.468;9.826;2022-11-15T04:28:30;7.10;99.90
44166;DHT22;30476;53.468;9.826;2022-11-15T04:30:56;7.10;99.90
44166;DHT22;30476;53.468;9.826;2022-11-15T04:33:22;7.20;99.90
44166;DHT22;30476;53.468;9.826;2022-11-15T04:35:48;7.20;99.90
44166;DHT22;30476;53.468;9.826;2022-11-15T04:38:35;7.20;99.90
44166;DHT22;30476;53.468;9.826;2022-11-15T04:41:01;7.30;99.90
44166;DHT22;30476;53.468;9.826;2022-11-15T04:43:28;7.30;99.90
44166;DHT22;30476;53.468;9.826;2022-11-15T04:45:54;7.40;99.90
44166;DHT22;30476;53.468;9.826;2022-11-15T04:48:19;7.40;99.90
44166;DHT22;30476;53.468;9.826;2022-11-15T04:50:48;7.40;99.90
44166;DHT22;30476;53.468;9.826;2022-11-15T04:53:13;7.50;99.90
44166;DHT22;30476;53.468;9.826;2022-11-15T04:55:39;7.50;99.90
44166;DHT22;30476;53.468;9.826;2022-11-15T04:58:05;7.60;99.90
44166;DHT22;30476;53.468;9.826;2022-11-15T05:00:31;7.60;99.90
44166;DHT22;30476;53.468;9.826;2022-11-15T05:02:58;7.70;99.90
44166;DHT22;30476;53.468;9.826;2022-11-15T05:05:42;7.70;99.90
44166;DHT22;30476;53.468;9.826;2022-11-15T05:08:07;7.80;99.90
44166;DHT22;30476;53.468;9.826;2022-11-15T05:10:33;7.80;99.90
44166;DHT22;30476;53.468;9.826;2022-11-15T05:12:59;7.80;99.90
44166;DHT22;30476;53.468;9.826;2022-11-15T05:15:24;7.80;99.90
44166;DHT22;30476;53.468;9.826;2022-11-15T05:17:50;7.80;99.90
44166;DHT22;30476;53.468;9.826;2022-11-15T05:20:16;7.90;99.90
44166;DHT22;30476;53.468;9.826;2022-11-15T05:22:42;8.00;99.90
44166;DHT22;30476;53.468;9.826;2022-11-15T05:25:08;8.00;99.90
44166;DHT22;30476;53.468;9.826;2022-11-15T05:27:34;8.00;99.90
44166;DHT22;30476;53.468;9.826;2022-11-15T05:30:00;8.00;99.90
44166;DHT22;30476;53.468;9.826;2022-11-15T05:32:26;8.00;99.90
44166;DHT22;30476;53.468;9.826;2022-11-15T05:34:53;8.10;99.90
44166;DHT22;30476;53.468;9.826;2022-11-15T05:37:19;8.10;99.90
44166;DHT22;30476;53.468;9.826;2022-11-15T05:39:45;8.10;99.90
44166;DHT22;30476;53.468;9.826;2022-11-15T05:42:13;8.10;99.90
44166;DHT22;30476;53.468;9.826;2022-11-15T05:44:42;8.20;99.90
44166;DHT22;30476;53.468;9.826;2022-11-15T05:47:12;8.20;99.90
44166;DHT22;30476;53.468;9.826;2022-11-15T05:49:40;8.20;99.90
44166;DHT22;30476;53.468;9.826;2022-11-15T05:52:10;8.30;99.90
44166;DHT22;30476;53.468;9.826;2022-11-15T05:54:38;8.30;99.90
44166;DHT22;30476;53.468;9.826;2022-11-15T05:57:04;8.40;99.90
44166;DHT22;30476;53.468;9.826;2022-11-15T05:59:32;8.40;99.90
44166;DHT22;30476;53.468;9.826;2022-11-15T06:01:59;8.40;99.90
44166;DHT22;30476;53.468;9.826;2022-11-15T06:04:24;8.40;99.90
44166;DHT22;30476;53.468;9.826;2022-11-15T06:06:50;8.50;99.90
44166;DHT22;30476;53.468;9.826;2022-11-15T06:09:16;8.60;99.90
44166;DHT22;30476;53.468;9.826;2022-11-15T06:11:42;8.60;99.90
44166;DHT22;30476;53.468;9.826;2022-11-15T06:14:08;8.70;99.90
44166;DHT22;30476;53.468;9.826;2022-11-15T06:16:34;8.70;99.90
44166;DHT22;30476;53.468;9.826;2022-11-15T06:19:00;8.70;99.90
44166;DHT22;30476;53.468;9.826;2022-11-15T06:21:26;8.70;99.90
44166;DHT22;30476;53.468;9.826;2022-11-15T06:23:53;8.80;99.90
44166;DHT22;30476;53.468;9.826;2022-11-15T06:26:19;8.80;99.90
44166;DHT22;30476;53.468;9.826;2022-11-15T06:28:45;8.90;99.90
44166;DHT22;30476;53.468;9.826;2022-11-15T06:31:11;8.90;99.90
44166;DHT22;30476;53.468;9.826;2022-11-15T06:33:38;9.00;99.90
44166;DHT22;30476;53.468;9.826;2022-11-15T06:36:06;9.00;99.90
44166;DHT22;30476;53.468;9.826;2022-11-15T06:38:33;9.00;99.90
44166;DHT22;30476;53.468;9.826;2022-11-15T06:41:03;9.00;99.90
44166;DHT22;30476;53.468;9.826;2022-11-15T06:43:29;9.10;99.90
44166;DHT22;30476;53.468;9.826;2022-11-15T06:45:55;9.10;99.90
44166;DHT22;30476;53.468;9.826;2022-11-15T06:48:22;9.10;99.90
44166;DHT22;30476;53.468;9.826;2022-11-15T06:50:52;9.20;99.90
44166;DHT22;30476;53.468;9.826;2022-11-15T06:53:18;9.20;99.90
44166;DHT22;30476;53.468;9.826;2022-11-15T06:55:44;9.20;99.90
44166;DHT22;30476;53.468;9.826;2022-11-15T06:58:10;9.30;99.90
44166;DHT22;30476;53.468;9.826;2022-11-15T07:00:35;9.30;99.90
44166;DHT22;30476;53.468;9.826;2022-11-15T07:03:02;9.40;99.90
44166;DHT22;30476;53.468;9.826;2022-11-15T07:05:28;9.40;99.90
44166;DHT22;30476;53.468;9.826;2022-11-15T07:07:55;9.40;99.90
44166;DHT22;30476;53.468;9.826;2022-11-15T07:10:23;9.40;99.90
44166;DHT22;30476;53.468;9.826;2022-11-15T07:12:53;9.50;99.90
44166;DHT22;30476;53.468;9.826;2022-11-15T07:15:21;9.50;99.90
44166;DHT22;30476;53.468;9.826;2022-11-15T07:17:47;9.50;99.90
44166;DHT22;30476;53.468;9.826;2022-11-15T07:20:14;9.60;99.90
44166;DHT22;30476;53.468;9.826;2022-11-15T07:22:40;9.50;99.90
44166;DHT22;30476;53.468;9.826;2022-11-15T07:25:07;9.60;99.90
44166;DHT22;30476;53.468;9.826;2022-11-15T07:27:33;9.60;99.90
44166;DHT22;30476;53.468;9.826;2022-11-15T07:29:59;9.60;99.90
44166;DHT22;30476;53.468;9.826;2022-11-15T07:32:24;9.70;99.90
44166;DHT22;30476;53.468;9.826;2022-11-15T07:34:50;9.70;99.90
44166;DHT22;30476;53.468;9.826;2022-11-15T07:37:16;9.70;99.90
44166;DHT22;30476;53.468;9.826;2022-11-15T07:39:43;9.70;99.90
44166;DHT22;30476;53.468;9.826;2022-11-15T07:42:09;9.70;99.90
44166;DHT22;30476;53.468;9.826;2022-11-15T07:45:13;9.80;99.90
44166;DHT22;30476;53.468;9.826;2022-11-15T07:47:39;9.80;99.90
44166;DHT22;30476;53.468;9.826;2022-11-15T07:50:05;9.80;99.90
44166;DHT22;30476;53.468;9.826;2022-11-15T07:52:31;9.80;99.90
44166;DHT22;30476;53.468;9.826;2022-11-15T07:54:56;9.90;99.90
44166;DHT22;30476;53.468;9.826;2022-11-15T07:57:22;9.90;99.90
44166;DHT22;30476;53.468;9.826;2022-11-15T07:59:48;9.90;99.90
44166;DHT22;30476;53.468;9.826;2022-11-15T08:02:14;9.80;99.90
44166;DHT22;30476;53.468;9.826;2022-11-15T08:04:43;9.90;99.90
44166;DHT22;30476;53.468;9.826;2022-11-15T08:07:09;9.90;99.90
44166;DHT22;30476;53.468;9.826;2022-11-15T08:09:35;9.90;99.90
44166;DHT22;30476;53.468;9.826;2022-11-15T08:12:01;9.90;99.90
44166;DHT22;30476;53.468;9.826;2022-11-15T08:14:26;9.90;99.90
44166;DHT22;30476;53.468;9.826;2022-11-15T08:16:53;10.00;99.90
44166;DHT22;30476;53.468;9.826;2022-11-15T08:19:19;10.00;99.90
44166;DHT22;30476;53.468;9.826;2022-11-15T08:21:45;10.00;99.90
44166;DHT22;30476;53.468;9.826;2022-11-15T08:24:11;10.00;99.90
44166;DHT22;30476;53.468;9.826;2022-11-15T08:26:37;10.00;99.90
44166;DHT22;30476;53.468;9.826;2022-11-15T08:29:03;10.00;99.90
44166;DHT22;30476;53.468;9.826;2022-11-15T08:31:28;10.10;99.90
44166;DHT22;30476;53.468;9.826;2022-11-15T08:33:54;10.10;99.90
44166;DHT22;30476;53.468;9.826;2022-11-15T08:36:20;10.20;99.90
44166;DHT22;30476;53.468;9.826;2022-11-15T08:38:46;10.20;99.90
44166;DHT22;30476;53.468;9.826;2022-11-15T08:41:19;10.20;99.90
44166;DHT22;30476;53.468;9.826;2022-11-15T08:43:49;10.30;99.90
44166;DHT22;30476;53.468;9.826;2022-11-15T08:46:15;10.30;99.90
44166;DHT22;30476;53.468;9.826;2022-11-15T08:48:40;10.30;99.90
44166;DHT22;30476;53.468;9.826;2022-11-15T08:51:06;10.40;99.90
44166;DHT22;30476;53.468;9.826;2022-11-15T08:53:32;10.40;99.90
44166;DHT22;30476;53.468;9.826;2022-11-15T08:55:57;10.40;99.90
44166;DHT22;30476;53.468;9.826;2022-11-15T08:58:23;10.40;99.90
44166;DHT22;30476;53.468;9.826;2022-11-15T09:00:49;10.50;99.90
44166;DHT22;30476;53.468;9.826;2022-11-15T09:03:15;10.60;99.90
44166;DHT22;30476;53.468;9.826;2022-11-15T09:05:41;10.60;99.90
44166;DHT22;30476;53.468;9.826;2022-11-15T09:08:08;10.70;99.90
44166;DHT22;30476;53.468;9.826;2022-11-15T09:10:33;10.80;99.90
44166;DHT22;30476;53.468;9.826;2022-11-15T09:12:59;10.90;99.90
44166;DHT22;30476;53.468;9.826;2022-11-15T09:15:26;10.90;99.90
44166;DHT22;30476;53.468;9.826;2022-11-15T09:17:52;11.00;99.90
44166;DHT22;30476;53.468;9.826;2022-11-15T09:20:17;11.10;99.90
44166;DHT22;30476;53.468;9.826;2022-11-15T09:22:43;11.20;99.90
44166;DHT22;30476;53.468;9.826;2022-11-15T09:25:09;11.20;99.90
44166;DHT22;30476;53.468;9.826;2022-11-15T09:27:34;11.30;99.90
44166;DHT22;30476;53.468;9.826;2022-11-15T09:30:00;11.40;99.90
44166;DHT22;30476;53.468;9.826;2022-11-15T09:32:29;11.40;99.90
44166;DHT22;30476;53.468;9.826;2022-11-15T09:34:56;11.50;99.90
44166;DHT22;30476;53.468;9.826;2022-11-15T09:37:22;11.60;99.90
44166;DHT22;30476;53.468;9.826;2022-11-15T09:39:48;11.70;99.90
44166;DHT22;30476;53.468;9.826;2022-11-15T09:50:49;12.00;99.90
44166;DHT22;30476;53.468;9.826;2022-11-15T09:53:35;12.00;99.90
44166;DHT22;30476;53.468;9.826;2022-11-15T09:56:19;12.00;99.90
44166;DHT22;30476;53.468;9.826;2022-11-15T10:01:58;12.20;99.90
44166;DHT22;30476;53.468;9.826;2022-11-15T10:04:27;12.30;99.90
44166;DHT22;30476;53.468;9.826;2022-11-15T10:09:51;12.30;99.90
44166;DHT22;30476;53.468;9.826;2022-11-15T10:12:18;12.40;99.90
44166;DHT22;30476;53.468;9.826;2022-11-15T10:14:45;12.30;99.90
44166;DHT22;30476;53.468;9.826;2022-11-15T10:19:56;12.40;99.90
44166;DHT22;30476;53.468;9.826;2022-11-15T10:27:56;12.40;99.90
44166;DHT22;30476;53.468;9.826;2022-11-15T10:30:33;12.30;99.90
44166;DHT22;30476;53.468;9.826;2022-11-15T10:33:53;12.40;99.90
44166;DHT22;30476;53.468;9.826;2022-11-15T10:36:15;12.40;99.90
44166;DHT22;30476;53.468;9.826;2022-11-15T10:39:02;12.40;99.90
44166;DHT22;30476;53.468;9.826;2022-11-15T10:41:30;12.40;99.90
44166;DHT22;30476;53.468;9.826;2022-11-15T10:46:28;12.50;99.90
44166;DHT22;30476;53.468;9.826;2022-11-15T10:48:58;12.50;99.90
44166;DHT22;30476;53.468;9.826;2022-11-15T10:51:42;12.50;99.90
44166;DHT22;30476;53.468;9.826;2022-11-15T10:54:10;12.50;99.90
44166;DHT22;30476;53.468;9.826;2022-11-15T10:56:39;12.50;99.90
44166;DHT22;30476;53.468;9.826;2022-11-15T10:59:23;12.50;99.90
44166;DHT22;30476;53.468;9.826;2022-11-15T11:01:49;12.60;99.90
44166;DHT22;30476;53.468;9.826;2022-11-15T11:04:15;12.60;99.90
44166;DHT22;30476;53.468;9.826;2022-11-15T11:06:51;12.60;99.90
44166;DHT22;30476;53.468;9.826;2022-11-15T11:09:32;12.70;99.90
44166;DHT22;30476;53.468;9.826;2022-11-15T11:12:00;12.70;99.90
44166;DHT22;30476;53.468;9.826;2022-11-15T11:14:28;12.80;99.90
44166;DHT22;30476;53.468;9.826;2022-11-15T11:17:13;12.80;99.90
44166;DHT22;30476;53.468;9.826;2022-11-15T11:22:49;12.80;99.90
44166;DHT22;30476;53.468;9.826;2022-11-15T11:28:24;12.90;99.90
44166;DHT22;30476;53.468;9.826;2022-11-15T11:33:54;12.90;99.90
44166;DHT22;30476;53.468;9.826;2022-11-15T11:36:59;12.90;99.90
44166;DHT22;30476;53.468;9.826;2022-11-15T11:39:45;12.90;99.90
44166;DHT22;30476;53.468;9.826;2022-11-15T11:43:15;13.00;99.90
44166;DHT22;30476;53.468;9.826;2022-11-15T11:45:22;13.10;99.90
44166;DHT22;30476;53.468;9.826;2022-11-15T11:48:30;13.30;99.90
44166;DHT22;30476;53.468;9.826;2022-11-15T11:51:07;13.40;99.90
44166;DHT22;30476;53.468;9.826;2022-11-15T11:53:56;13.60;99.90
44166;DHT22;30476;53.468;9.826;2022-11-15T11:56:27;13.80;99.90
44166;DHT22;30476;53.468;9.826;2022-11-15T11:58:57;13.90;99.90
44166;DHT22;30476;53.468;9.826;2022-11-15T12:01:39;14.00;99.90
44166;DHT22;30476;53.468;9.826;2022-11-15T12:04:25;14.20;99.90
44166;DHT22;30476;53.468;9.826;2022-11-15T12:07:00;14.30;99.90
44166;DHT22;30476;53.468;9.826;2022-11-15T12:09:38;14.40;99.90
44166;DHT22;30476;53.468;9.826;2022-11-15T12:12:09;14.60;99.90
44166;DHT22;30476;53.468;9.826;2022-11-15T12:14:44;14.70;99.90
44166;DHT22;30476;53.468;9.826;2022-11-15T12:17:12;14.70;99.90
44166;DHT22;30476;53.468;9.826;2022-11-15T12:19:39;14.80;99.90
44166;DHT22;30476;53.468;9.826;2022-11-15T12:27:21;15.20;99.90
44166;DHT22;30476;53.468;9.826;2022-11-15T12:29:56;15.10;99.80
44166;DHT22;30476;53.468;9.826;2022-11-15T12:32:30;15.30;99.40
44166;DHT22;30476;53.468;9.826;2022-11-15T12:34:57;15.30;99.40
44166;DHT22;30476;53.468;9.826;2022-11-15T12:40:37;15.40;99.00
44166;DHT22;30476;53.468;9.826;2022-11-15T12:45:39;15.50;99.10
44166;DHT22;30476;53.468;9.826;2022-11-15T12:50:53;15.60;98.90
44166;DHT22;30476;53.468;9.826;2022-11-15T12:53:29;15.60;98.50
44166;DHT22;30476;53.468;9.826;2022-11-15T12:58:47;15.70;98.50
44166;DHT22;30476;53.468;9.826;2022-11-15T13:06:49;15.70;98.30
44166;DHT22;30476;53.468;9.826;2022-11-15T13:12:01;15.70;98.30
44166;DHT22;30476;53.468;9.826;2022-11-15T13:19:47;15.70;98.30
44166;DHT22;30476;53.468;9.826;2022-11-15T13:22:13;15.70;98.10
44166;DHT22;30476;53.468;9.826;2022-11-15T13:25:00;15.80;98.20
44166;DHT22;30476;53.468;9.826;2022-11-15T13:27:27;15.80;97.90
44166;DHT22;30476;53.468;9.826;2022-11-15T13:29:53;15.80;97.90
44166;DHT22;30476;53.468;9.826;2022-11-15T13:32:19;15.80;97.80
44166;DHT22;30476;53.468;9.826;2022-11-15T13:34:48;15.90;97.80
44166;DHT22;30476;53.468;9.826;2022-11-15T13:39:48;15.90;97.60
44166;DHT22;30476;53.468;9.826;2022-11-15T13:42:20;15.90;97.60
44166;DHT22;30476;53.468;9.826;2022-11-15T13:45:00;15.90;97.30
44166;DHT22;30476;53.468;9.826;2022-11-15T13:47:28;15.90;97.20
44166;DHT22;30476;53.468;9.826;2022-11-15T13:49:58;15.90;97.40
44166;DHT22;30476;53.468;9.826;2022-11-15T13:52:33;15.90;97.30
44166;DHT22;30476;53.468;9.826;2022-11-15T13:55:16;15.90;97.30
44166;DHT22;30476;53.468;9.826;2022-11-15T13:57:48;15.90;97.30
44166;DHT22;30476;53.468;9.826;2022-11-15T14:00:36;15.80;97.40
44166;DHT22;30476;53.468;9.826;2022-11-15T14:03:25;15.80;97.30
44166;DHT22;30476;53.468;9.826;2022-11-15T14:06:11;15.80;97.30
44166;DHT22;30476;53.468;9.826;2022-11-15T14:11:22;15.70;97.40
44166;DHT22;30476;53.468;9.826;2022-11-15T14:16:47;15.60;97.50
44166;DHT22;30476;53.468;9.826;2022-11-15T14:19:34;15.50;97.50
44166;DHT22;30476;53.468;9.826;2022-11-15T14:27:29;15.40;97.80
44166;DHT22;30476;53.468;9.826;2022-11-15T14:29:55;15.20;97.80
44166;DHT22;30476;53.468;9.826;2022-11-15T14:32:23;15.20;97.80
44166;DHT22;30476;53.468;9.826;2022-11-15T14:35:00;15.20;97.90
44166;DHT22;30476;53.468;9.826;2022-11-15T14:37:32;15.20;98.00
44166;DHT22;30476;53.468;9.826;2022-11-15T14:40:03;15.10;98.00
44166;DHT22;30476;53.468;9.826;2022-11-15T14:42:29;15.10;98.10
44166;DHT22;30476;53.468;9.826;2022-11-15T14:44:55;15.00;98.20
44166;DHT22;30476;53.468;9.826;2022-11-15T14:47:21;14.90;98.30
44166;DHT22;30476;53.468;9.826;2022-11-15T14:49:47;14.90;98.30
44166;DHT22;30476;53.468;9.826;2022-11-15T14:52:33;14.90;98.40
44166;DHT22;30476;53.468;9.826;2022-11-15T14:55:09;14.80;98.40
44166;DHT22;30476;53.468;9.826;2022-11-15T14:57:36;14.70;98.50
44166;DHT22;30476;53.468;9.826;2022-11-15T15:00:03;14.70;98.60
44166;DHT22;30476;53.468;9.826;2022-11-15T15:02:28;14.60;98.60
44166;DHT22;30476;53.468;9.826;2022-11-15T15:04:54;14.50;98.70
44166;DHT22;30476;53.468;9.826;2022-11-15T15:07:22;14.50;98.80
44166;DHT22;30476;53.468;9.826;2022-11-15T15:09:47;14.40;98.80
44166;DHT22;30476;53.468;9.826;2022-11-15T15:12:18;14.40;98.90
44166;DHT22;30476;53.468;9.826;2022-11-15T15:14:45;14.30;98.90
44166;DHT22;30476;53.468;9.826;2022-11-15T15:17:11;14.20;99.00
44166;DHT22;30476;53.468;9.826;2022-11-15T15:19:36;14.10;99.10
44166;DHT22;30476;53.468;9.826;2022-11-15T15:22:02;14.00;99.10
44166;DHT22;30476;53.468;9.826;2022-11-15T15:24:28;14.00;99.20
44166;DHT22;30476;53.468;9.826;2022-11-15T15:26:54;13.90;99.30
44166;DHT22;30476;53.468;9.826;2022-11-15T15:29:20;13.80;99.30
44166;DHT22;30476;53.468;9.826;2022-11-15T15:31:46;13.70;99.70
44166;DHT22;30476;53.468;9.826;2022-11-15T15:34:11;13.60;99.40
44166;DHT22;30476;53.468;9.826;2022-11-15T15:36:37;13.50;99.50
44166;DHT22;30476;53.468;9.826;2022-11-15T15:39:03;13.40;99.50
44166;DHT22;30476;53.468;9.826;2022-11-15T15:41:29;13.30;99.60
44166;DHT22;30476;53.468;9.826;2022-11-15T15:43:55;13.20;99.70
44166;DHT22;30476;53.468;9.826;2022-11-15T15:46:21;13.20;99.80
44166;DHT22;30476;53.468;9.826;2022-11-15T15:48:46;13.10;99.90
44166;DHT22;30476;53.468;9.826;2022-11-15T15:51:12;13.00;99.90
44166;DHT22;30476;53.468;9.826;2022-11-15T15:53:38;13.00;99.90
44166;DHT22;30476;53.468;9.826;2022-11-15T15:56:04;12.90;99.90
44166;DHT22;30476;53.468;9.826;2022-11-15T15:58:33;12.90;99.90
44166;DHT22;30476;53.468;9.826;2022-11-15T16:00:59;12.80;99.90
44166;DHT22;30476;53.468;9.826;2022-11-15T16:03:25;12.90;99.90
44166;DHT22;30476;53.468;9.826;2022-11-15T16:05:53;12.90;99.90
44166;DHT22;30476;53.468;9.826;2022-11-15T16:08:21;12.90;99.90
44166;DHT22;30476;53.468;9.826;2022-11-15T16:10:48;12.90;99.90
44166;DHT22;30476;53.468;9.826;2022-11-15T16:13:14;13.00;99.90
44166;DHT22;30476;53.468;9.826;2022-11-15T16:15:40;13.00;99.90
44166;DHT22;30476;53.468;9.826;2022-11-15T16:18:14;13.00;99.90
44166;DHT22;30476;53.468;9.826;2022-11-15T16:20:45;13.00;99.90
44166;DHT22;30476;53.468;9.826;2022-11-15T16:23:13;13.10;99.90
44166;DHT22;30476;53.468;9.826;2022-11-15T16:25:44;13.10;99.90
44166;DHT22;30476;53.468;9.826;2022-11-15T16:28:25;13.10;99.90
44166;DHT22;30476;53.468;9.826;2022-11-15T16:31:11;13.10;99.90
44166;DHT22;30476;53.468;9.826;2022-11-15T16:33:37;13.10;99.90
44166;DHT22;30476;53.468;9.826;2022-11-15T16:36:05;13.10;99.90
44166;DHT22;30476;53.468;9.826;2022-11-15T16:38:31;13.10;99.90
44166;DHT22;30476;53.468;9.826;2022-11-15T16:40:57;13.10;99.90
44166;DHT22;30476;53.468;9.826;2022-11-15T16:43:23;13.10;99.90
44166;DHT22;30476;53.468;9.826;2022-11-15T16:45:50;13.10;99.90
44166;DHT22;30476;53.468;9.826;2022-11-15T16:48:24;13.10;99.90
44166;DHT22;30476;53.468;9.826;2022-11-15T16:50:53;13.10;99.90
44166;DHT22;30476;53.468;9.826;2022-11-15T16:53:19;13.10;99.90
44166;DHT22;30476;53.468;9.826;2022-11-15T16:55:45;13.20;99.90
44166;DHT22;30476;53.468;9.826;2022-11-15T16:58:11;13.00;99.90
44166;DHT22;30476;53.468;9.826;2022-11-15T17:00:37;13.10;99.90
44166;DHT22;30476;53.468;9.826;2022-11-15T17:03:03;13.00;99.90
44166;DHT22;30476;53.468;9.826;2022-11-15T17:05:29;13.00;99.90
44166;DHT22;30476;53.468;9.826;2022-11-15T17:07:55;13.00;99.90
44166;DHT22;30476;53.468;9.826;2022-11-15T17:10:22;13.00;99.90
44166;DHT22;30476;53.468;9.826;2022-11-15T17:12:50;13.00;99.90
44166;DHT22;30476;53.468;9.826;2022-11-15T17:15:16;13.00;99.90
44166;DHT22;30476;53.468;9.826;2022-11-15T17:17:42;13.00;99.90
44166;DHT22;30476;53.468;9.826;2022-11-15T17:20:16;12.90;99.90
44166;DHT22;30476;53.468;9.826;2022-11-15T17:22:42;12.90;99.90
44166;DHT22;30476;53.468;9.826;2022-11-15T17:25:09;12.90;99.90
44166;DHT22;30476;53.468;9.826;2022-11-15T17:27:35;12.90;99.90
44166;DHT22;30476;53.468;9.826;2022-11-15T17:30:01;12.90;99.90
44166;DHT22;30476;53.468;9.826;2022-11-15T17:32:27;12.90;99.90
44166;DHT22;30476;53.468;9.826;2022-11-15T17:34:53;12.90;99.90
44166;DHT22;30476;53.468;9.826;2022-11-15T17:37:19;12.80;99.90
44166;DHT22;30476;53.468;9.826;2022-11-15T17:39:45;12.80;99.90
44166;DHT22;30476;53.468;9.826;2022-11-15T17:42:10;12.80;99.90
44166;DHT22;30476;53.468;9.826;2022-11-15T17:44:36;12.80;99.90